sensor_id;sensor_type;location;lat;lon;timestamp;pressure;altitude;pressure_sealevel;temperature;humidity
79150;BME280;68563;45.644;13.782;2023-06-14T00:01:43;100415.47;;;22.62;42.78
79150;BME280;68563;45.644;13.782;2023-06-14T00:04:11;100418.44;;;22.58;43.11
79150;BME280;68563;45.644;13.782;2023-06-14T00:06:36;100413.03;;;22.59;42.88
79150;BME280;68563;45.644;13.782;2023-06-14T00:09:01;100410.41;;;22.59;42.72
79150;BME280;68563;45.644;13.782;2023-06-14T00:11:27;100410.94;;;22.52;42.76
79150;BME280;68563;45.644;13.782;2023-06-14T00:13:52;100407.00;;;22.57;42.89
79150;BME280;68563;45.644;13.782;2023-06-14T00:16:18;100399.44;;;22.53;42.96
79150;BME280;68563;45.644;13.782;2023-06-14T00:18:45;100398.16;;;22.45;43.15
79150;BME280;68563;45.644;13.782;2023-06-14T00:21:11;100392.13;;;22.43;42.90
79150;BME280;68563;45.644;13.782;2023-06-14T00:23:37;100389.28;;;22.46;43.17
79150;BME280;68563;45.644;13.782;2023-06-14T00:26:03;100384.22;;;22.43;43.11
79150;BME280;68563;45.644;13.782;2023-06-14T00:28:28;100392.13;;;22.43;43.12
79150;BME280;68563;45.644;13.782;2023-06-14T00:30:53;100385.38;;;22.39;42.92
79150;BME280;68563;45.644;13.782;2023-06-14T00:33:19;100385.16;;;22.42;43.24
79150;BME280;68563;45.644;13.782;2023-06-14T00:35:44;100389.47;;;22.43;42.89
79150;BME280;68563;45.644;13.782;2023-06-14T00:38:10;100375.75;;;22.38;43.01
79150;BME280;68563;45.644;13.782;2023-06-14T00:40:35;100358.63;;;22.31;42.90
79150;BME280;68563;45.644;13.782;2023-06-14T00:43:00;100377.47;;;22.39;42.80
79150;BME280;68563;45.644;13.782;2023-06-14T00:45:26;100366.13;;;22.37;42.58
79150;BME280;68563;45.644;13.782;2023-06-14T00:47:52;100365.84;;;22.42;42.51
79150;BME280;68563;45.644;13.782;2023-06-14T00:50:20;100367.63;;;22.41;42.50
79150;BME280;68563;45.644;13.782;2023-06-14T00:52:47;100370.25;;;22.41;42.63
79150;BME280;68563;45.644;13.782;2023-06-14T00:55:12;100359.03;;;22.38;42.45
79150;BME280;68563;45.644;13.782;2023-06-14T00:57:38;100362.97;;;22.32;42.22
79150;BME280;68563;45.644;13.782;2023-06-14T01:00:05;100351.44;;;22.33;42.49
79150;BME280;68563;45.644;13.782;2023-06-14T01:02:37;100356.13;;;22.42;42.34
79150;BME280;68563;45.644;13.782;2023-06-14T01:05:03;100360.31;;;22.32;42.63
79150;BME280;68563;45.644;13.782;2023-06-14T01:10:37;100362.41;;;22.27;42.46
79150;BME280;68563;45.644;13.782;2023-06-14T01:15:34;100360.50;;;22.29;42.69
79150;BME280;68563;45.644;13.782;2023-06-14T01:18:00;100361.47;;;22.28;42.77
79150;BME280;68563;45.644;13.782;2023-06-14T01:20:37;100360.72;;;22.26;42.51
79150;BME280;68563;45.644;13.782;2023-06-14T01:23:02;100353.53;;;22.28;42.76
79150;BME280;68563;45.644;13.782;2023-06-14T01:25:28;100356.94;;;22.30;42.42
79150;BME280;68563;45.644;13.782;2023-06-14T01:28:02;100344.88;;;22.26;42.71
79150;BME280;68563;45.644;13.782;2023-06-14T01:30:30;100343.22;;;22.25;42.25
79150;BME280;68563;45.644;13.782;2023-06-14T01:32:58;100346.78;;;22.24;42.88
79150;BME280;68563;45.644;13.782;2023-06-14T01:35:24;100343.28;;;22.23;42.76
79150;BME280;68563;45.644;13.782;2023-06-14T01:37:51;100332.34;;;22.17;42.96
79150;BME280;68563;45.644;13.782;2023-06-14T01:40:17;100347.50;;;22.26;43.04
79150;BME280;68563;45.644;13.782;2023-06-14T01:42:46;100342.34;;;22.24;42.70
79150;BME280;68563;45.644;13.782;2023-06-14T01:45:12;100327.16;;;22.15;42.77
79150;BME280;68563;45.644;13.782;2023-06-14T01:47:38;100344.25;;;22.22;42.58
79150;BME280;68563;45.644;13.782;2023-06-14T01:50:05;100333.69;;;22.22;42.76
79150;BME280;68563;45.644;13.782;2023-06-14T01:52:30;100327.88;;;22.17;42.96
79150;BME280;68563;45.644;13.782;2023-06-14T01:54:56;100320.91;;;22.03;42.87
79150;BME280;68563;45.644;13.782;2023-06-14T01:57:23;100288.38;;;21.77;42.78
79150;BME280;68563;45.644;13.782;2023-06-14T01:59:50;100333.16;;;22.04;42.63
79150;BME280;68563;45.644;13.782;2023-06-14T02:02:16;100340.84;;;22.07;42.80
79150;BME280;68563;45.644;13.782;2023-06-14T02:04:41;100339.72;;;22.11;42.75
79150;BME280;68563;45.644;13.782;2023-06-14T02:07:07;100330.31;;;22.07;42.49
79150;BME280;68563;45.644;13.782;2023-06-14T02:09:35;100338.09;;;22.09;42.86
79150;BME280;68563;45.644;13.782;2023-06-14T02:12:01;100321.63;;;22.05;42.88
79150;BME280;68563;45.644;13.782;2023-06-14T02:14:27;100316.88;;;21.97;42.81
79150;BME280;68563;45.644;13.782;2023-06-14T02:16:52;100331.53;;;22.02;42.84
79150;BME280;68563;45.644;13.782;2023-06-14T02:19:19;100332.28;;;22.04;43.20
79150;BME280;68563;45.644;13.782;2023-06-14T02:21:46;100332.94;;;22.07;43.22
79150;BME280;68563;45.644;13.782;2023-06-14T02:24:11;100336.63;;;22.05;42.95
79150;BME280;68563;45.644;13.782;2023-06-14T02:26:37;100335.38;;;22.10;42.78
79150;BME280;68563;45.644;13.782;2023-06-14T02:29:08;100341.72;;;22.08;42.46
79150;BME280;68563;45.644;13.782;2023-06-14T02:31:36;100339.38;;;22.03;42.51
79150;BME280;68563;45.644;13.782;2023-06-14T02:34:01;100344.44;;;22.06;42.43
79150;BME280;68563;45.644;13.782;2023-06-14T02:36:27;100346.53;;;22.01;42.93
79150;BME280;68563;45.644;13.782;2023-06-14T02:38:54;100339.56;;;22.00;42.77
79150;BME280;68563;45.644;13.782;2023-06-14T02:41:23;100354.34;;;22.03;42.72
79150;BME280;68563;45.644;13.782;2023-06-14T02:43:48;100350.97;;;22.01;42.75
79150;BME280;68563;45.644;13.782;2023-06-14T02:46:13;100335.44;;;21.96;43.05
79150;BME280;68563;45.644;13.782;2023-06-14T02:48:39;100346.63;;;21.99;42.75
79150;BME280;68563;45.644;13.782;2023-06-14T02:51:05;100342.09;;;22.02;43.07
79150;BME280;68563;45.644;13.782;2023-06-14T02:53:31;100342.31;;;21.98;42.86
79150;BME280;68563;45.644;13.782;2023-06-14T02:55:57;100341.38;;;21.99;42.53
79150;BME280;68563;45.644;13.782;2023-06-14T02:58:23;100332.28;;;21.91;42.70
79150;BME280;68563;45.644;13.782;2023-06-14T03:00:50;100331.13;;;21.95;42.89
79150;BME280;68563;45.644;13.782;2023-06-14T03:03:17;100336.50;;;21.93;42.81
79150;BME280;68563;45.644;13.782;2023-06-14T03:05:45;100335.09;;;21.88;42.45
79150;BME280;68563;45.644;13.782;2023-06-14T03:08:13;100333.94;;;21.92;42.83
79150;BME280;68563;45.644;13.782;2023-06-14T03:10:48;100329.09;;;21.86;42.90
79150;BME280;68563;45.644;13.782;2023-06-14T03:13:15;100330.88;;;21.85;42.61
79150;BME280;68563;45.644;13.782;2023-06-14T03:15:44;100337.63;;;21.89;42.78
79150;BME280;68563;45.644;13.782;2023-06-14T03:18:10;100330.78;;;21.87;42.95
79150;BME280;68563;45.644;13.782;2023-06-14T03:20:37;100332.47;;;21.88;42.88
79150;BME280;68563;45.644;13.782;2023-06-14T03:23:03;100336.16;;;21.85;42.93
79150;BME280;68563;45.644;13.782;2023-06-14T03:25:30;100327.59;;;21.81;42.85
79150;BME280;68563;45.644;13.782;2023-06-14T03:27:56;100331.00;;;21.83;42.90
79150;BME280;68563;45.644;13.782;2023-06-14T03:30:22;100330.34;;;21.80;43.07
79150;BME280;68563;45.644;13.782;2023-06-14T03:32:47;100327.31;;;21.86;42.73
79150;BME280;68563;45.644;13.782;2023-06-14T03:35:12;100335.22;;;21.86;42.75
79150;BME280;68563;45.644;13.782;2023-06-14T03:37:43;100335.41;;;21.83;42.69
79150;BME280;68563;45.644;13.782;2023-06-14T03:40:10;100339.44;;;21.89;43.04
79150;BME280;68563;45.644;13.782;2023-06-14T03:42:36;100343.97;;;21.87;42.71
79150;BME280;68563;45.644;13.782;2023-06-14T03:45:01;100346.28;;;21.91;42.65
79150;BME280;68563;45.644;13.782;2023-06-14T03:47:27;100339.97;;;21.94;42.55
79150;BME280;68563;45.644;13.782;2023-06-14T03:49:52;100347.13;;;21.92;42.54
79150;BME280;68563;45.644;13.782;2023-06-14T03:52:18;100347.53;;;21.86;42.47
79150;BME280;68563;45.644;13.782;2023-06-14T03:54:43;100345.53;;;21.89;42.56
79150;BME280;68563;45.644;13.782;2023-06-14T03:57:09;100341.78;;;21.93;42.38
79150;BME280;68563;45.644;13.782;2023-06-14T03:59:35;100343.38;;;21.96;42.26
79150;BME280;68563;45.644;13.782;2023-06-14T04:02:02;100347.47;;;22.00;42.00
79150;BME280;68563;45.644;13.782;2023-06-14T04:04:27;100349.06;;;22.03;42.03
79150;BME280;68563;45.644;13.782;2023-06-14T04:06:57;100345.00;;;22.11;42.05
79150;BME280;68563;45.644;13.782;2023-06-14T04:09:24;100355.34;;;22.27;41.74
79150;BME280;68563;45.644;13.782;2023-06-14T04:11:53;100348.97;;;22.44;41.05
79150;BME280;68563;45.644;13.782;2023-06-14T04:14:19;100347.78;;;22.49;41.66
79150;BME280;68563;45.644;13.782;2023-06-14T04:16:48;100361.63;;;22.65;41.49
79150;BME280;68563;45.644;13.782;2023-06-14T04:19:15;100355.09;;;22.71;41.04
79150;BME280;68563;45.644;13.782;2023-06-14T04:21:41;100353.38;;;22.83;40.56
79150;BME280;68563;45.644;13.782;2023-06-14T04:24:07;100357.28;;;22.90;40.61
79150;BME280;68563;45.644;13.782;2023-06-14T04:26:49;100361.41;;;22.94;40.99
79150;BME280;68563;45.644;13.782;2023-06-14T04:29:14;100369.41;;;23.05;40.20
79150;BME280;68563;45.644;13.782;2023-06-14T04:31:42;100359.16;;;23.14;39.98
79150;BME280;68563;45.644;13.782;2023-06-14T04:34:07;100373.97;;;23.29;40.02
79150;BME280;68563;45.644;13.782;2023-06-14T04:36:33;100363.66;;;23.37;40.01
79150;BME280;68563;45.644;13.782;2023-06-14T04:39:06;100371.06;;;23.45;39.35
79150;BME280;68563;45.644;13.782;2023-06-14T04:41:32;100377.25;;;23.57;39.30
79150;BME280;68563;45.644;13.782;2023-06-14T04:43:58;100377.53;;;23.65;38.83
79150;BME280;68563;45.644;13.782;2023-06-14T04:46:27;100373.22;;;23.64;38.05
79150;BME280;68563;45.644;13.782;2023-06-14T04:48:54;100379.28;;;23.78;38.05
79150;BME280;68563;45.644;13.782;2023-06-14T04:51:19;100377.88;;;23.85;37.51
79150;BME280;68563;45.644;13.782;2023-06-14T04:53:47;100386.16;;;23.80;37.39
79150;BME280;68563;45.644;13.782;2023-06-14T04:56:14;100385.59;;;23.88;37.51
79150;BME280;68563;45.644;13.782;2023-06-14T04:58:40;100374.06;;;23.89;37.53
79150;BME280;68563;45.644;13.782;2023-06-14T05:01:05;100386.84;;;23.95;37.94
79150;BME280;68563;45.644;13.782;2023-06-14T05:03:34;100387.72;;;23.96;37.99
79150;BME280;68563;45.644;13.782;2023-06-14T05:05:59;100369.44;;;23.80;37.65
79150;BME280;68563;45.644;13.782;2023-06-14T05:08:25;100392.59;;;23.76;38.37
79150;BME280;68563;45.644;13.782;2023-06-14T05:10:51;100388.00;;;23.67;39.00
79150;BME280;68563;45.644;13.782;2023-06-14T05:13:16;100400.38;;;23.66;39.49
79150;BME280;68563;45.644;13.782;2023-06-14T05:15:42;100400.38;;;23.66;39.73
79150;BME280;68563;45.644;13.782;2023-06-14T05:18:08;100400.38;;;23.66;40.02
79150;BME280;68563;45.644;13.782;2023-06-14T05:20:34;100399.28;;;23.69;40.07
79150;BME280;68563;45.644;13.782;2023-06-14T05:23:02;100399.84;;;23.61;40.05
79150;BME280;68563;45.644;13.782;2023-06-14T05:25:28;100412.75;;;23.66;40.35
79150;BME280;68563;45.644;13.782;2023-06-14T05:27:53;100408.53;;;23.63;40.42
79150;BME280;68563;45.644;13.782;2023-06-14T05:30:18;100417.28;;;23.64;40.20
79150;BME280;68563;45.644;13.782;2023-06-14T05:32:44;100420.06;;;23.62;40.14
79150;BME280;68563;45.644;13.782;2023-06-14T05:35:10;100425.56;;;23.59;40.25
79150;BME280;68563;45.644;13.782;2023-06-14T05:37:36;100415.97;;;23.45;40.10
79150;BME280;68563;45.644;13.782;2023-06-14T05:40:02;100423.59;;;23.37;40.62
79150;BME280;68563;45.644;13.782;2023-06-14T05:42:30;100415.69;;;23.24;40.71
79150;BME280;68563;45.644;13.782;2023-06-14T05:44:55;100402.19;;;23.03;41.00
79150;BME280;68563;45.644;13.782;2023-06-14T05:47:21;100423.31;;;23.03;41.26
79150;BME280;68563;45.644;13.782;2023-06-14T05:49:46;100419.72;;;23.04;41.74
79150;BME280;68563;45.644;13.782;2023-06-14T05:52:11;100424.44;;;23.11;41.16
79150;BME280;68563;45.644;13.782;2023-06-14T05:54:38;100415.69;;;23.11;41.50
79150;BME280;68563;45.644;13.782;2023-06-14T05:57:04;100411.25;;;23.11;40.89
79150;BME280;68563;45.644;13.782;2023-06-14T05:59:31;100439.25;;;23.27;40.40
79150;BME280;68563;45.644;13.782;2023-06-14T06:01:57;100438.00;;;23.33;40.43
79150;BME280;68563;45.644;13.782;2023-06-14T06:04:23;100441.78;;;23.41;40.14
79150;BME280;68563;45.644;13.782;2023-06-14T06:06:48;100448.66;;;23.44;40.38
79150;BME280;68563;45.644;13.782;2023-06-14T06:09:14;100454.75;;;23.57;40.29
79150;BME280;68563;45.644;13.782;2023-06-14T06:11:40;100459.78;;;23.73;39.92
79150;BME280;68563;45.644;13.782;2023-06-14T06:14:05;100455.72;;;23.81;39.68
79150;BME280;68563;45.644;13.782;2023-06-14T06:16:31;100461.13;;;23.92;39.33
79150;BME280;68563;45.644;13.782;2023-06-14T06:18:56;100463.66;;;23.94;39.62
79150;BME280;68563;45.644;13.782;2023-06-14T06:21:21;100461.84;;;23.94;39.64
79150;BME280;68563;45.644;13.782;2023-06-14T06:23:47;100461.44;;;23.87;38.83
79150;BME280;68563;45.644;13.782;2023-06-14T06:26:12;100458.31;;;23.69;39.05
79150;BME280;68563;45.644;13.782;2023-06-14T06:28:38;100469.06;;;23.79;38.86
79150;BME280;68563;45.644;13.782;2023-06-14T06:31:03;100455.88;;;23.66;39.17
79150;BME280;68563;45.644;13.782;2023-06-14T06:33:29;100438.16;;;23.55;38.94
79150;BME280;68563;45.644;13.782;2023-06-14T06:35:54;100466.38;;;23.68;39.46
79150;BME280;68563;45.644;13.782;2023-06-14T06:38:20;100465.50;;;23.67;39.72
79150;BME280;68563;45.644;13.782;2023-06-14T06:40:45;100462.84;;;23.67;39.62
79150;BME280;68563;45.644;13.782;2023-06-14T06:43:11;100482.19;;;23.81;39.87
79150;BME280;68563;45.644;13.782;2023-06-14T06:45:42;100453.66;;;23.73;39.77
79150;BME280;68563;45.644;13.782;2023-06-14T06:48:07;100463.53;;;23.95;39.27
79150;BME280;68563;45.644;13.782;2023-06-14T06:50:35;100459.91;;;24.09;39.11
79150;BME280;68563;45.644;13.782;2023-06-14T06:53:01;100465.03;;;24.24;39.04
79150;BME280;68563;45.644;13.782;2023-06-14T06:55:26;100463.25;;;24.35;39.13
79150;BME280;68563;45.644;13.782;2023-06-14T06:57:51;100448.91;;;24.27;39.01
79150;BME280;68563;45.644;13.782;2023-06-14T07:00:19;100485.25;;;24.60;39.01
79150;BME280;68563;45.644;13.782;2023-06-14T07:02:45;100490.59;;;24.72;39.23
79150;BME280;68563;45.644;13.782;2023-06-14T07:05:11;100474.38;;;24.76;38.77
79150;BME280;68563;45.644;13.782;2023-06-14T07:07:36;100486.31;;;24.93;38.97
79150;BME280;68563;45.644;13.782;2023-06-14T07:10:03;100475.03;;;25.03;38.32
79150;BME280;68563;45.644;13.782;2023-06-14T07:12:30;100483.81;;;25.14;38.52
79150;BME280;68563;45.644;13.782;2023-06-14T07:14:57;100467.34;;;25.22;37.89
79150;BME280;68563;45.644;13.782;2023-06-14T07:17:22;100466.72;;;25.30;37.92
79150;BME280;68563;45.644;13.782;2023-06-14T07:19:48;100483.97;;;25.47;37.80
79150;BME280;68563;45.644;13.782;2023-06-14T07:22:13;100476.03;;;25.58;37.70
79150;BME280;68563;45.644;13.782;2023-06-14T07:24:39;100462.97;;;25.67;36.75
79150;BME280;68563;45.644;13.782;2023-06-14T07:27:05;100470.22;;;25.76;36.52
79150;BME280;68563;45.644;13.782;2023-06-14T07:29:31;100443.72;;;25.64;36.89
79150;BME280;68563;45.644;13.782;2023-06-14T07:31:56;100473.09;;;25.84;36.57
79150;BME280;68563;45.644;13.782;2023-06-14T07:34:22;100478.41;;;25.84;34.64
79150;BME280;68563;45.644;13.782;2023-06-14T07:36:47;100452.75;;;25.73;34.89
79150;BME280;68563;45.644;13.782;2023-06-14T07:39:13;100451.06;;;25.72;34.96
79150;BME280;68563;45.644;13.782;2023-06-14T07:41:38;100456.44;;;25.82;34.58
79150;BME280;68563;45.644;13.782;2023-06-14T07:44:04;100453.28;;;25.88;34.69
79150;BME280;68563;45.644;13.782;2023-06-14T07:46:29;100482.81;;;26.18;34.97
79150;BME280;68563;45.644;13.782;2023-06-14T07:48:55;100471.34;;;26.06;34.99
79150;BME280;68563;45.644;13.782;2023-06-14T07:51:20;100461.69;;;26.05;34.67
79150;BME280;68563;45.644;13.782;2023-06-14T07:53:48;100443.28;;;25.92;33.90
79150;BME280;68563;45.644;13.782;2023-06-14T07:56:13;100448.00;;;25.88;33.24
79150;BME280;68563;45.644;13.782;2023-06-14T07:58:39;100447.03;;;25.89;33.41
79150;BME280;68563;45.644;13.782;2023-06-14T08:01:04;100436.69;;;25.86;33.74
79150;BME280;68563;45.644;13.782;2023-06-14T08:03:32;100469.47;;;26.08;33.38
79150;BME280;68563;45.644;13.782;2023-06-14T08:05:57;100474.78;;;26.08;35.09
79150;BME280;68563;45.644;13.782;2023-06-14T08:08:23;100450.50;;;26.01;34.12
79150;BME280;68563;45.644;13.782;2023-06-14T08:10:49;100469.13;;;26.22;34.98
79150;BME280;68563;45.644;13.782;2023-06-14T08:13:14;100458.63;;;26.32;34.27
79150;BME280;68563;45.644;13.782;2023-06-14T08:15:40;100464.59;;;26.46;34.00
79150;BME280;68563;45.644;13.782;2023-06-14T08:18:06;100463.94;;;26.53;34.34
79150;BME280;68563;45.644;13.782;2023-06-14T08:20:31;100466.53;;;26.65;33.36
79150;BME280;68563;45.644;13.782;2023-06-14T08:22:58;100428.25;;;26.46;34.71
79150;BME280;68563;45.644;13.782;2023-06-14T08:25:23;100465.56;;;26.77;34.76
79150;BME280;68563;45.644;13.782;2023-06-14T08:27:49;100460.94;;;26.79;34.27
79150;BME280;68563;45.644;13.782;2023-06-14T08:30:15;100463.00;;;26.75;32.90
79150;BME280;68563;45.644;13.782;2023-06-14T08:32:42;100449.91;;;26.63;32.48
79150;BME280;68563;45.644;13.782;2023-06-14T08:35:08;100458.25;;;26.58;32.69
79150;BME280;68563;45.644;13.782;2023-06-14T08:37:38;100465.78;;;26.53;32.64
79150;BME280;68563;45.644;13.782;2023-06-14T08:40:12;100450.44;;;26.56;32.66
79150;BME280;68563;45.644;13.782;2023-06-14T08:42:41;100444.13;;;26.57;32.03
79150;BME280;68563;45.644;13.782;2023-06-14T08:45:07;100464.31;;;26.81;32.02
79150;BME280;68563;45.644;13.782;2023-06-14T08:47:33;100474.69;;;26.84;32.27
79150;BME280;68563;45.644;13.782;2023-06-14T08:50:02;100470.06;;;26.86;33.39
79150;BME280;68563;45.644;13.782;2023-06-14T08:52:33;100465.31;;;26.90;32.33
79150;BME280;68563;45.644;13.782;2023-06-14T08:54:59;100452.84;;;26.81;32.80
79150;BME280;68563;45.644;13.782;2023-06-14T08:57:26;100476.47;;;27.05;32.28
79150;BME280;68563;45.644;13.782;2023-06-14T08:59:56;100469.78;;;27.11;32.47
79150;BME280;68563;45.644;13.782;2023-06-14T09:02:22;100473.00;;;27.14;33.03
79150;BME280;68563;45.644;13.782;2023-06-14T09:04:47;100469.59;;;27.02;33.39
79150;BME280;68563;45.644;13.782;2023-06-14T09:07:15;100473.69;;;27.06;32.99
79150;BME280;68563;45.644;13.782;2023-06-14T09:09:41;100469.72;;;27.01;34.31
79150;BME280;68563;45.644;13.782;2023-06-14T09:12:11;100486.81;;;27.08;34.20
79150;BME280;68563;45.644;13.782;2023-06-14T09:14:38;100485.41;;;27.04;34.51
79150;BME280;68563;45.644;13.782;2023-06-14T09:17:05;100486.63;;;27.00;34.69
79150;BME280;68563;45.644;13.782;2023-06-14T09:19:31;100481.47;;;26.98;35.00
79150;BME280;68563;45.644;13.782;2023-06-14T09:21:57;100482.44;;;26.97;35.19
79150;BME280;68563;45.644;13.782;2023-06-14T09:24:24;100483.69;;;26.93;34.37
79150;BME280;68563;45.644;13.782;2023-06-14T09:26:51;100492.63;;;26.92;35.54
79150;BME280;68563;45.644;13.782;2023-06-14T09:29:17;100477.06;;;26.87;35.68
79150;BME280;68563;45.644;13.782;2023-06-14T09:31:46;100480.00;;;26.84;35.59
79150;BME280;68563;45.644;13.782;2023-06-14T09:34:11;100491.25;;;26.98;35.63
79150;BME280;68563;45.644;13.782;2023-06-14T09:36:39;100487.78;;;27.07;35.45
79150;BME280;68563;45.644;13.782;2023-06-14T09:39:05;100498.91;;;27.12;35.66
79150;BME280;68563;45.644;13.782;2023-06-14T09:41:36;100496.34;;;27.11;35.38
79150;BME280;68563;45.644;13.782;2023-06-14T09:44:06;100496.09;;;27.14;35.52
79150;BME280;68563;45.644;13.782;2023-06-14T09:46:33;100502.25;;;27.14;35.91
79150;BME280;68563;45.644;13.782;2023-06-14T09:48:59;100499.59;;;27.14;35.76
79150;BME280;68563;45.644;13.782;2023-06-14T09:51:26;100495.13;;;27.15;35.50
79150;BME280;68563;45.644;13.782;2023-06-14T09:53:53;100494.84;;;27.18;35.84
79150;BME280;68563;45.644;13.782;2023-06-14T09:56:28;100490.22;;;27.10;35.80
79150;BME280;68563;45.644;13.782;2023-06-14T09:58:57;100478.13;;;27.06;34.69
79150;BME280;68563;45.644;13.782;2023-06-14T10:01:26;100500.25;;;27.06;35.88
79150;BME280;68563;45.644;13.782;2023-06-14T10:04:04;100476.81;;;26.90;36.56
79150;BME280;68563;45.644;13.782;2023-06-14T10:06:31;100493.97;;;26.86;36.42
79150;BME280;68563;45.644;13.782;2023-06-14T10:08:58;100496.38;;;26.89;36.72
79150;BME280;68563;45.644;13.782;2023-06-14T10:11:27;100486.13;;;26.85;36.79
79150;BME280;68563;45.644;13.782;2023-06-14T10:13:55;100495.94;;;26.84;36.79
79150;BME280;68563;45.644;13.782;2023-06-14T10:17:12;100491.59;;;26.83;37.19
79150;BME280;68563;45.644;13.782;2023-06-14T10:19:55;100489.91;;;26.82;37.42
79150;BME280;68563;45.644;13.782;2023-06-14T10:22:36;100498.00;;;26.81;37.27
79150;BME280;68563;45.644;13.782;2023-06-14T10:25:06;100495.47;;;26.79;37.25
79150;BME280;68563;45.644;13.782;2023-06-14T10:27:33;100485.94;;;26.77;37.41
79150;BME280;68563;45.644;13.782;2023-06-14T10:32:25;100480.16;;;26.71;36.71
79150;BME280;68563;45.644;13.782;2023-06-14T10:34:58;100486.81;;;26.66;36.85
79150;BME280;68563;45.644;13.782;2023-06-14T10:37:24;100481.84;;;26.72;36.99
79150;BME280;68563;45.644;13.782;2023-06-14T10:39:50;100486.09;;;26.75;37.04
79150;BME280;68563;45.644;13.782;2023-06-14T10:42:17;100483.72;;;26.82;36.35
79150;BME280;68563;45.644;13.782;2023-06-14T10:44:45;100482.75;;;26.83;36.15
79150;BME280;68563;45.644;13.782;2023-06-14T10:49:51;100482.91;;;26.81;36.61
79150;BME280;68563;45.644;13.782;2023-06-14T10:52:22;100477.59;;;26.81;36.49
79150;BME280;68563;45.644;13.782;2023-06-14T10:57:42;100484.72;;;26.81;36.42
79150;BME280;68563;45.644;13.782;2023-06-14T11:00:09;100484.59;;;26.82;36.17
79150;BME280;68563;45.644;13.782;2023-06-14T11:05:29;100489.09;;;26.70;36.85
79150;BME280;68563;45.644;13.782;2023-06-14T11:08:15;100486.91;;;26.75;37.38
79150;BME280;68563;45.644;13.782;2023-06-14T11:10:44;100487.16;;;26.72;37.48
79150;BME280;68563;45.644;13.782;2023-06-14T11:13:13;100482.38;;;26.66;37.57
79150;BME280;68563;45.644;13.782;2023-06-14T11:15:44;100481.63;;;26.64;38.35
79150;BME280;68563;45.644;13.782;2023-06-14T11:18:11;100476.19;;;26.66;38.81
79150;BME280;68563;45.644;13.782;2023-06-14T11:20:37;100477.88;;;26.67;38.28
79150;BME280;68563;45.644;13.782;2023-06-14T11:23:03;100467.53;;;26.64;38.15
79150;BME280;68563;45.644;13.782;2023-06-14T11:25:30;100476.63;;;26.71;38.32
79150;BME280;68563;45.644;13.782;2023-06-14T11:27:55;100466.28;;;26.68;38.19
79150;BME280;68563;45.644;13.782;2023-06-14T11:30:21;100473.44;;;26.67;37.59
79150;BME280;68563;45.644;13.782;2023-06-14T11:32:48;100474.50;;;26.65;37.12
79150;BME280;68563;45.644;13.782;2023-06-14T11:35:14;100471.31;;;26.50;37.18
79150;BME280;68563;45.644;13.782;2023-06-14T11:37:41;100490.28;;;26.45;37.50
79150;BME280;68563;45.644;13.782;2023-06-14T11:40:07;100480.78;;;26.42;36.92
79150;BME280;68563;45.644;13.782;2023-06-14T11:42:35;100474.88;;;26.39;36.63
79150;BME280;68563;45.644;13.782;2023-06-14T11:45:01;100462.06;;;26.44;36.89
79150;BME280;68563;45.644;13.782;2023-06-14T11:47:40;100461.38;;;26.42;36.94
79150;BME280;68563;45.644;13.782;2023-06-14T11:50:07;100463.06;;;26.43;37.33
79150;BME280;68563;45.644;13.782;2023-06-14T11:52:37;100449.63;;;26.44;36.95
79150;BME280;68563;45.644;13.782;2023-06-14T11:55:03;100456.38;;;26.49;37.21
79150;BME280;68563;45.644;13.782;2023-06-14T11:57:33;100441.88;;;26.53;36.69
79150;BME280;68563;45.644;13.782;2023-06-14T11:59:58;100446.09;;;26.55;36.90
79150;BME280;68563;45.644;13.782;2023-06-14T12:02:24;100446.09;;;26.55;37.00
79150;BME280;68563;45.644;13.782;2023-06-14T12:04:50;100450.16;;;26.59;36.45
79150;BME280;68563;45.644;13.782;2023-06-14T12:07:16;100437.00;;;26.58;36.14
79150;BME280;68563;45.644;13.782;2023-06-14T12:12:23;100436.50;;;26.64;36.70
79150;BME280;68563;45.644;13.782;2023-06-14T12:14:54;100446.00;;;26.67;36.97
79150;BME280;68563;45.644;13.782;2023-06-14T12:17:21;100437.31;;;26.65;36.57
79150;BME280;68563;45.644;13.782;2023-06-14T12:19:48;100425.88;;;26.64;36.41
79150;BME280;68563;45.644;13.782;2023-06-14T12:22:14;100432.88;;;26.65;36.13
79150;BME280;68563;45.644;13.782;2023-06-14T12:24:43;100429.25;;;26.66;36.59
79150;BME280;68563;45.644;13.782;2023-06-14T12:27:08;100429.09;;;26.68;36.47
79150;BME280;68563;45.644;13.782;2023-06-14T12:29:35;100414.00;;;26.68;35.65
79150;BME280;68563;45.644;13.782;2023-06-14T12:32:01;100414.41;;;26.64;36.67
79150;BME280;68563;45.644;13.782;2023-06-14T12:34:26;100419.59;;;26.65;36.96
79150;BME280;68563;45.644;13.782;2023-06-14T12:36:53;100424.50;;;26.70;36.38
79150;BME280;68563;45.644;13.782;2023-06-14T12:39:19;100429.53;;;26.73;36.07
79150;BME280;68563;45.644;13.782;2023-06-14T12:41:45;100418.78;;;26.74;35.54
79150;BME280;68563;45.644;13.782;2023-06-14T12:44:11;100417.84;;;26.75;35.95
79150;BME280;68563;45.644;13.782;2023-06-14T12:46:37;100423.03;;;26.77;35.79
79150;BME280;68563;45.644;13.782;2023-06-14T12:49:04;100409.97;;;26.74;35.67
79150;BME280;68563;45.644;13.782;2023-06-14T12:51:30;100417.59;;;26.79;36.00
79150;BME280;68563;45.644;13.782;2023-06-14T12:53:56;100417.19;;;26.83;35.97
79150;BME280;68563;45.644;13.782;2023-06-14T12:56:21;100409.66;;;26.88;35.60
79150;BME280;68563;45.644;13.782;2023-06-14T12:58:46;100416.22;;;26.84;35.52